Saint Paul, MN (55171)

11:09 AM CST on January 28, 2015 (GMT -0600)
APRSWXNET Saint Paul MN US | Change Station
CLOSE
Current Station
Personal Weather Station
Location: Saint Paul, MN
Elevation: 800 ft
Nearby Weather Stations

Elev 800 ft 44.94 °N, 93.11 °W | Updated 39 minutes ago

Overcast
Overcast
29 °F
Feels Like 23 °F
N
6
Wind Variable Wind from SE
Gusts 15.0 mph

Today
High -- | Low -- °F
--% Chance of Precip.
Yesterday
High -- | Low -- °F
Precip. -- in
7:36 AM 5:14 PM
Waxing Gibbous, 66% visible
Pressure 30.01 in
Visibility 4.0 miles
Clouds Overcast 1000 ft
Windchill 23 °F
Dew Point 26 °F
Humidity 89%
Rainfall 0.00 in
Snow Depth Not available.
UV 1 out of 12
Pollen .10 out of 12
Air Quality Not available.
Flu Activity Not available.
METAR KSTP 281653Z 13013KT 4SM BR OVC010 M02/M04 A2998 RMK AO2 SLP161 T10221039

More Conditions Fewer Conditions

Pressure 30.01 in
Visibility 4.0 miles
Clouds Overcast 1000 ft
Windchill 23 °F
Dew Point 26 °F
Humidity 89%
Rainfall 0.00 in
Snow Depth Not available.
UV 1 out of 12
Pollen .10 out of 12
Air Quality Not available.
Flu Activity Not available.
METAR KSTP 281653Z 13013KT 4SM BR OVC010 M02/M04 A2998 RMK AO2 SLP161 T10221039

More Conditions Fewer Conditions

10-Day Weather Forecast

Almanac

Astronomy

Jan. 28, 2015 Rise Set
Actual Time
Civil Twilight
Nautical Twilight
Astronomical Twilight
Moon
Length of Visible Light
Length of Day
Tomorrow will be .
, % of the Moon is Illuminated

Today's Extremes

State Highs State Lows

Community

WunderPhotos

Upload Photos

1,791,204 photos uploaded!

WunderBlogs® & News

Nearby

Air Quality

  Air Quality AQ Index Pollutant
Not available.

Snow Depth

Station Depth Elevation

Earthquake Activity

City Distance Mag. Time & Date
Minimum magnitude displayed is 2.5.

Coastal Water Temperatures

Place Temperature

Nearby Weather Stations